Time;durP1;ratioP1;P1;durP2;ratioP2;P2;SDS_P1;SDS_P2;PMS_P1;PMS_P2;Temp;Humidity;BMP_temperature;BMP_pressure;BME280_temperature;BME280_humidity;BME280_pressure;Samples;Min_cycle;Max_cycle;Signal;HPM_P1;HPM_P2
2022/12/12 00:00:11;;;;;;;12.03;4.83;;;7.20;99.90;;;7.87;50.14;100613.25;4867592;28;102370;-56
2022/12/12 00:02:38;;;;;;;9.50;4.70;;;7.20;99.90;;;7.88;50.16;100609.72;4886943;28;98377;-58
2022/12/12 00:05:06;;;;;;;13.37;4.33;;;7.20;99.90;;;7.89;51.82;100611.44;4881702;28;98142;-58
2022/12/12 00:07:32;;;;;;;10.87;4.53;;;7.20;99.90;;;7.83;49.92;100608.97;4869628;28;99727;-59
2022/12/12 00:09:57;;;;;;;15.73;5.43;;;7.20;99.90;;;7.79;50.83;100609.94;4866911;28;103883;-59
2022/12/12 00:12:23;;;;;;;9.97;5.10;;;7.20;99.90;;;7.92;51.95;100618.38;4871137;28;99287;-55
2022/12/12 00:14:49;;;;;;;6.87;4.17;;;7.20;99.90;;;7.80;49.79;100613.41;4869134;28;108129;-59
2022/12/12 00:17:15;;;;;;;8.23;3.97;;;7.20;99.90;;;7.77;50.15;100622.25;4868787;28;100315;-56
2022/12/12 00:19:42;;;;;;;8.67;3.93;;;7.20;99.90;;;7.82;50.78;100628.28;4871533;28;97652;-59
2022/12/12 00:22:08;;;;;;;10.27;4.23;;;7.20;99.90;;;7.83;51.09;100624.75;4866049;28;97493;-59
2022/12/12 00:24:35;;;;;;;7.97;4.33;;;7.10;99.90;;;7.82;50.68;100623.00;4869368;28;97250;-57
2022/12/12 00:27:01;;;;;;;9.73;4.40;;;7.20;99.90;;;7.84;49.99;100621.22;4865432;28;97714;-55
2022/12/12 00:29:26;;;;;;;14.67;5.23;;;7.20;99.90;;;7.81;49.80;100631.78;4871804;28;97218;-54
2022/12/12 00:31:52;;;;;;;10.83;4.93;;;7.20;99.90;;;7.88;50.07;100628.09;4868090;28;97573;-55
2022/12/12 00:34:18;;;;;;;7.70;3.93;;;7.20;99.90;;;7.90;50.75;100623.66;4863923;28;113182;-56
2022/12/12 00:36:44;;;;;;;20.77;5.70;;;7.20;99.90;;;8.00;51.37;100630.44;4870504;28;98938;-56
2022/12/12 00:39:10;;;;;;;10.73;4.27;;;7.30;99.90;;;8.09;51.52;100631.06;4866963;28;97456;-57
2022/12/12 00:41:36;;;;;;;8.03;4.17;;;7.40;99.90;;;8.14;52.85;100635.31;4867440;28;113171;-57
2022/12/12 00:44:03;;;;;;;6.97;4.03;;;7.40;99.90;;;8.24;51.49;100630.66;4863838;28;97952;-57
2022/12/12 00:46:29;;;;;;;9.17;3.43;;;7.40;99.90;;;8.20;51.37;100629.03;4869913;28;96731;-56
2022/12/12 00:48:57;;;;;;;14.63;5.63;;;7.40;99.90;;;8.09;49.32;100623.19;4878358;28;97509;-59
2022/12/12 00:51:26;;;;;;;7.37;3.67;;;7.40;99.90;;;7.97;49.51;100625.25;4866817;28;102259;-59
2022/12/12 00:53:52;;;;;;;9.13;4.43;;;7.30;99.90;;;8.00;50.34;100630.44;4867281;28;97487;-58
2022/12/12 00:56:20;;;;;;;9.67;3.97;;;7.30;99.90;;;7.99;50.39;100631.31;4866371;28;96766;-59
2022/12/12 00:58:47;;;;;;;7.03;3.87;;;7.30;99.90;;;7.99;51.61;100636.59;4882839;28;97668;-59
2022/12/12 01:01:21;;;;;;;9.10;4.53;;;7.30;99.90;;;7.92;49.44;100645.50;4856351;28;97432;-59
2022/12/12 01:03:47;;;;;;;9.37;3.53;;;7.30;99.90;;;7.89;49.96;100635.06;4867420;28;99520;-59
2022/12/12 01:06:13;;;;;;;8.30;4.03;;;7.20;99.90;;;7.92;51.21;100629.75;4879332;28;97328;-58
2022/12/12 01:08:39;;;;;;;7.83;4.73;;;7.20;99.90;;;7.82;49.68;100633.53;4867909;28;97673;-56
2022/12/12 01:11:07;;;;;;;10.40;4.47;;;7.20;99.90;;;7.73;49.75;100638.97;4862907;28;97373;-60
2022/12/12 01:13:34;;;;;;;11.67;4.40;;;7.20;99.90;;;7.75;51.05;100647.69;4867889;28;96971;-56
2022/12/12 01:16:00;;;;;;;7.63;3.97;;;7.10;99.90;;;7.92;53.36;100645.50;4862588;28;97009;-57
2022/12/12 01:18:25;;;;;;;9.97;4.80;;;7.20;99.90;;;7.89;50.37;100645.59;4868962;28;97031;-56
2022/12/12 01:20:51;;;;;;;11.67;5.27;;;7.20;99.90;;;7.91;50.73;100638.53;4865175;28;99065;-56
2022/12/12 01:23:17;;;;;;;7.70;3.20;;;7.20;99.90;;;7.94;51.02;100648.94;4860657;28;98110;-57
2022/12/12 01:25:43;;;;;;;9.07;4.67;;;7.30;99.90;;;7.92;51.23;100645.50;4885130;28;97320;-55
2022/12/12 01:28:09;;;;;;;10.90;4.50;;;7.20;99.90;;;8.02;51.87;100652.25;4879326;28;111940;-58
2022/12/12 01:30:35;;;;;;;11.50;4.70;;;7.30;99.90;;;8.05;50.54;100667.94;4902303;28;111700;-57
2022/12/12 01:33:02;;;;;;;11.47;4.10;;;7.40;99.90;;;7.99;49.82;100660.22;4878019;28;97939;-59
2022/12/12 01:35:30;;;;;;;10.87;3.93;;;7.30;99.90;;;7.88;50.35;100659.63;4886420;28;96770;-56
2022/12/12 01:37:56;;;;;;;10.13;3.77;;;7.20;99.90;;;7.80;50.51;100665.94;4886561;28;96748;-56
2022/12/12 01:40:26;;;;;;;9.03;3.70;;;7.20;99.90;;;7.71;50.69;100667.03;4896765;28;103087;-57
2022/12/12 01:42:53;;;;;;;10.77;4.10;;;7.20;99.90;;;7.66;50.60;100659.25;4884087;28;96985;-56
2022/12/12 01:46:32;;;;;;;8.83;4.73;;;7.10;99.90;;;7.60;51.24;100666.44;4883500;28;96636;-58
2022/12/12 01:49:11;;;;;;;9.07;5.27;;;7.00;99.90;;;7.60;52.26;100669.91;4874157;28;97163;-51
2022/12/12 01:51:39;;;;;;;6.13;3.73;;;6.90;99.90;;;7.57;52.17;100669.13;4883170;28;97678;-53
2022/12/12 01:54:14;;;;;;;8.10;3.17;;;7.00;99.90;;;7.49;51.20;100671.06;4892920;28;98619;-57
2022/12/12 01:56:42;;;;;;;16.07;6.07;;;6.90;99.90;;;7.50;51.53;100667.53;4877481;28;97138;-54
2022/12/12 01:59:12;;;;;;;8.10;4.10;;;6.90;99.90;;;7.60;52.92;100669.06;4892433;28;97314;-54
2022/12/12 02:01:39;;;;;;;11.03;3.23;;;6.90;99.90;;;7.59;51.52;100662.06;4904190;28;97379;-53
2022/12/12 02:04:06;;;;;;;12.23;3.90;;;7.00;99.90;;;7.63;52.37;100669.84;4878361;28;101645;-52
2022/12/12 02:06:32;;;;;;;10.10;4.43;;;7.00;99.90;;;7.68;51.70;100673.22;4879984;28;97199;-55
2022/12/12 02:09:04;;;;;;;8.70;4.03;;;7.10;99.90;;;7.69;53.14;100668.84;4880732;28;103221;-57
2022/12/12 02:11:32;;;;;;;10.10;3.83;;;7.00;99.90;;;7.67;52.88;100666.25;4875357;28;97189;-56
2022/12/12 02:13:58;;;;;;;6.37;3.87;;;7.00;99.90;;;7.79;51.94;100665.09;4892585;28;97154;-58
2022/12/12 02:17:00;;;;;;;12.67;4.97;;;7.10;99.90;;;7.94;54.37;100663.84;4897866;28;96921;-54
2022/12/12 02:20:13;;;;;;;7.13;3.80;;;7.20;99.90;;;8.06;54.58;100669.66;4893243;28;98514;-52
2022/12/12 02:23:25;;;;;;;7.73;4.07;;;7.20;99.90;;;8.20;50.32;100666.69;4881380;28;100796;-59
2022/12/12 02:26:25;;;;;;;6.93;3.70;;;7.40;99.90;;;8.11;51.33;100660.81;4876642;28;101121;-57
2022/12/12 02:29:28;;;;;;;7.00;3.63;;;7.40;99.90;;;8.05;50.63;100661.81;4882924;28;97098;-55
2022/12/12 02:32:49;;;;;;;8.47;4.00;;;7.30;99.90;;;7.98;52.18;100665.53;4880005;28;97420;-54
2022/12/12 02:35:31;;;;;;;9.13;4.57;;;7.20;99.90;;;7.90;51.90;100657.81;4880882;28;100520;-56
2022/12/12 02:38:43;;;;;;;8.83;4.23;;;7.20;99.90;;;7.77;50.97;100666.88;4880842;28;97010;-54
2022/12/12 02:41:35;;;;;;;7.73;3.77;;;7.10;99.90;;;7.70;52.71;100670.56;4874251;28;97439;-58
2022/12/12 02:44:17;;;;;;;8.10;4.63;;;7.10;99.90;;;7.65;52.98;100668.03;4882447;28;97151;-54
2022/12/12 02:47:22;;;;;;;9.00;5.03;;;7.00;99.90;;;7.53;52.60;100664.84;4892431;28;97495;-54
2022/12/12 02:50:15;;;;;;;9.67;3.60;;;6.90;99.90;;;7.53;52.71;100672.72;4875260;28;101165;-53
2022/12/12 02:52:42;;;;;;;8.17;4.07;;;6.90;99.90;;;7.53;52.22;100668.34;4872067;28;96834;-53
2022/12/12 02:55:08;;;;;;;10.03;5.23;;;6.90;99.90;;;7.51;52.27;100658.75;4882026;28;96933;-58
2022/12/12 02:57:34;;;;;;;8.90;4.73;;;6.90;99.90;;;7.44;52.36;100664.16;4880275;28;121115;-56
2022/12/12 03:00:09;;;;;;;5.90;3.47;;;6.90;99.90;;;7.48;52.03;100667.56;4878182;28;124954;-56
2022/12/12 03:09:54;;;;;;;11.50;4.27;;;6.80;99.90;;;7.39;54.13;100666.03;4890042;28;101379;-55
2022/12/12 03:12:47;;;;;;;7.63;3.67;;;6.70;99.90;;;7.29;51.56;100663.63;4890199;28;97325;-54
2022/12/12 03:15:23;;;;;;;7.30;3.60;;;6.70;99.90;;;7.19;52.49;100662.97;4877732;28;96931;-56
2022/12/12 03:18:27;;;;;;;8.60;3.67;;;6.60;99.90;;;7.10;52.53;100663.19;4879255;28;96718;-58
2022/12/12 03:21:25;;;;;;;6.37;3.57;;;6.60;99.90;;;7.13;52.65;100671.84;4892532;28;101583;-58
2022/12/12 03:23:58;;;;;;;8.27;3.83;;;6.60;99.90;;;7.07;52.59;100673.72;4874309;28;100994;-59
2022/12/12 03:26:34;;;;;;;8.83;4.30;;;6.50;99.90;;;7.03;52.46;100666.81;4878107;28;96880;-56
2022/12/12 03:29:23;;;;;;;10.77;5.10;;;6.50;99.90;;;7.13;54.77;100673.59;4899321;28;96877;-51
2022/12/12 03:31:53;;;;;;;7.67;4.40;;;6.50;99.90;;;7.22;53.73;100668.13;4889690;28;99883;-59
2022/12/12 03:34:26;;;;;;;7.30;4.17;;;6.60;99.90;;;7.25;53.46;100662.84;4882585;28;96983;-57
2022/12/12 03:37:00;;;;;;;7.23;3.87;;;6.60;99.90;;;7.51;54.44;100659.63;4885504;28;98445;-56
2022/12/12 03:39:46;;;;;;;10.03;4.13;;;6.80;99.90;;;7.64;53.23;100658.44;4880901;28;96679;-56
2022/12/12 03:42:33;;;;;;;9.33;4.70;;;6.90;99.90;;;7.75;51.40;100663.44;4879003;28;97048;-53
2022/12/12 03:45:42;;;;;;;9.67;3.90;;;7.10;99.90;;;7.67;52.13;100665.41;4878860;28;96759;-57
2022/12/12 03:48:32;;;;;;;9.80;4.00;;;6.90;99.90;;;7.59;52.05;100669.94;4882736;28;97381;-56
2022/12/12 03:51:17;;;;;;;10.03;4.10;;;6.90;99.90;;;7.60;52.28;100669.91;4879203;28;97288;-53
2022/12/12 03:53:59;;;;;;;6.60;3.60;;;6.90;99.90;;;7.57;50.64;100669.13;4885930;28;98886;-59
2022/12/12 03:56:45;;;;;;;8.07;3.47;;;6.90;99.90;;;7.62;51.75;100675.13;4896476;28;100055;-57
2022/12/12 03:59:39;;;;;;;7.70;4.20;;;6.90;99.90;;;7.63;53.62;100668.97;4896349;28;97181;-55
2022/12/12 04:02:39;;;;;;;7.43;3.50;;;6.90;99.90;;;7.53;52.59;100672.72;4882406;28;97020;-58
2022/12/12 04:05:34;;;;;;;7.80;3.23;;;6.80;99.90;;;7.49;54.11;100677.16;4878366;28;96935;-52
2022/12/12 04:08:12;;;;;;;8.63;3.47;;;6.70;99.90;;;7.56;55.58;100683.16;4893111;28;97185;-54
2022/12/12 04:14:08;;;;;;;5.07;2.53;;;6.90;99.90;;;7.51;51.83;100685.00;4874409;28;96833;-58
2022/12/12 04:16:41;;;;;;;6.27;3.73;;;6.80;99.90;;;7.55;50.63;100681.44;4879036;28;101651;-56
2022/12/12 04:25:29;;;;;;;7.10;3.30;;;6.80;99.90;;;7.26;50.71;100690.81;4872611;28;97329;-54
2022/12/12 04:28:03;;;;;;;7.20;3.23;;;6.70;99.90;;;7.37;53.63;100691.41;4882458;28;97499;-59
2022/12/12 04:30:30;;;;;;;5.90;3.10;;;6.70;99.90;;;7.40;50.46;100699.25;4879597;28;102376;-54
2022/12/12 04:33:10;;;;;;;6.23;2.80;;;6.70;99.90;;;7.37;52.07;100703.66;4884792;28;96904;-60
2022/12/12 04:35:44;;;;;;;4.93;2.43;;;6.70;99.90;;;7.28;49.70;100693.41;4889215;28;97020;-52
2022/12/12 04:38:20;;;;;;;5.27;3.37;;;6.70;99.90;;;7.38;51.43;100705.44;4891601;28;97729;-55
2022/12/12 04:40:51;;;;;;;4.20;2.17;;;6.70;99.90;;;7.50;55.64;100709.53;4887221;28;97280;-57
2022/12/12 04:43:27;;;;;;;5.43;2.83;;;6.70;99.90;;;7.51;50.36;100713.88;4898760;28;96919;-54
2022/12/12 04:46:03;;;;;;;5.27;2.73;;;6.80;99.90;;;7.67;54.30;100710.03;4886808;28;97160;-55
2022/12/12 04:48:37;;;;;;;4.60;3.00;;;6.90;99.90;;;7.65;50.38;100717.06;4884101;28;101765;-57
2022/12/12 04:51:05;;;;;;;7.00;2.77;;;6.90;99.90;;;7.63;49.50;100713.59;4892221;28;98405;-56
2022/12/12 04:53:36;;;;;;;7.10;3.10;;;6.80;99.90;;;7.46;48.22;100711.34;4879753;28;96927;-54
2022/12/12 04:56:09;;;;;;;8.37;3.53;;;6.80;99.90;;;7.38;50.52;100711.53;4880743;28;97173;-55
2022/12/12 04:58:37;;;;;;;2.97;1.97;;;6.60;99.90;;;7.34;50.39;100709.84;4888405;28;97308;-56
2022/12/12 05:01:12;;;;;;;4.40;2.70;;;6.60;99.90;;;7.28;51.06;100719.63;4894578;28;97065;-55
2022/12/12 05:03:58;;;;;;;4.30;2.63;;;6.60;99.90;;;7.30;50.38;100716.06;4882764;28;97057;-59
2022/12/12 05:06:39;;;;;;;5.77;2.07;;;6.60;99.90;;;7.34;51.02;100720.34;4879997;28;96965;-56
2022/12/12 05:09:06;;;;;;;5.90;3.07;;;6.60;99.90;;;7.27;49.62;100718.78;4884642;28;100176;-59
2022/12/12 05:11:33;;;;;;;4.43;2.47;;;6.50;99.90;;;7.16;49.46;100720.75;4882174;28;97030;-59
2022/12/12 05:13:59;;;;;;;7.10;2.53;;;6.50;99.90;;;7.12;50.42;100721.72;4881903;28;96968;-59
2022/12/12 05:16:52;;;;;;;6.33;3.10;;;6.40;99.90;;;7.04;50.27;100721.00;4884839;28;105220;-55
2022/12/12 05:19:18;;;;;;;6.87;2.37;;;6.40;99.90;;;7.01;49.61;100721.06;4878984;28;96919;-57
2022/12/12 05:21:44;;;;;;;4.67;2.23;;;6.40;99.90;;;7.02;50.68;100717.53;4883536;28;97313;-56
2022/12/12 05:24:09;;;;;;;3.87;2.47;;;6.40;99.90;;;7.05;49.99;100722.72;4880197;28;97309;-59
2022/12/12 05:26:36;;;;;;;5.50;2.47;;;6.40;99.90;;;6.92;49.34;100724.72;4880959;28;103608;-58
2022/12/12 05:29:03;;;;;;;4.73;2.90;;;6.30;99.90;;;7.03;54.46;100716.63;4881553;28;99671;-57
2022/12/12 05:31:29;;;;;;;7.90;2.73;;;6.30;99.90;;;7.10;51.71;100720.88;4875767;28;97862;-59
2022/12/12 05:36:53;;;;;;;5.20;2.37;;;6.40;99.90;;;7.14;52.90;100722.53;4967654;28;121294;-52
2022/12/12 05:39:19;;;;;;;4.10;2.00;;;6.40;99.90;;;7.09;50.44;100724.41;4970563;28;97475;-53
2022/12/12 05:41:45;;;;;;;4.53;1.53;;;6.40;99.90;;;7.18;50.74;100726.81;4978760;28;108615;-53
2022/12/12 05:44:10;;;;;;;5.47;2.27;;;6.40;99.90;;;7.32;51.34;100719.53;4963087;28;97287;-56
2022/12/12 05:46:36;;;;;;;5.20;2.97;;;6.50;99.90;;;7.31;49.57;100723.06;4994782;28;96674;-54
2022/12/12 05:49:02;;;;;;;6.63;2.13;;;6.50;99.90;;;7.23;48.00;100727.56;4990353;28;98252;-52
2022/12/12 05:51:28;;;;;;;4.57;2.47;;;6.50;99.90;;;7.33;50.05;100723.88;4990082;28;122237;-54
2022/12/12 05:53:55;;;;;;;3.50;1.70;;;6.50;99.90;;;7.29;51.82;100723.97;4996317;28;96871;-54
2022/12/12 05:56:21;;;;;;;5.13;2.03;;;6.50;99.90;;;7.35;49.67;100732.56;4987733;28;105269;-53
2022/12/12 05:58:46;;;;;;;3.63;2.57;;;6.60;99.90;;;7.35;47.66;100732.56;4972575;28;103068;-54
2022/12/12 06:01:12;;;;;;;4.90;2.33;;;6.60;99.90;;;7.38;49.49;100737.78;4989503;28;114398;-55
2022/12/12 06:03:38;;;;;;;7.23;2.10;;;6.60;99.90;;;7.36;50.88;100739.56;4990249;28;97250;-53
2022/12/12 06:06:04;;;;;;;7.63;2.20;;;6.50;99.90;;;7.26;50.33;100742.41;4983997;28;102509;-56
2022/12/12 06:08:29;;;;;;;7.30;2.37;;;6.40;99.90;;;7.17;50.82;100743.47;4989297;28;97403;-56
2022/12/12 06:10:55;;;;;;;4.53;2.30;;;6.40;99.90;;;7.04;47.93;100739.34;4994049;28;109574;-55
2022/12/12 06:13:21;;;;;;;5.37;1.90;;;6.30;99.90;;;7.15;49.83;100750.50;4987002;28;107648;-53
2022/12/12 06:15:47;;;;;;;2.33;1.73;;;6.30;99.90;;;7.38;55.74;100745.66;4983312;28;103386;-54
2022/12/12 06:18:13;;;;;;;5.00;1.77;;;6.40;99.90;;;7.56;53.19;100740.91;4971131;28;98276;-55
2022/12/12 06:20:39;;;;;;;3.80;2.00;;;6.60;99.90;;;7.53;48.13;100746.22;4989663;28;121130;-55
2022/12/12 06:23:05;;;;;;;2.37;1.30;;;6.70;99.90;;;7.32;46.66;100744.91;4993632;28;109330;-55
2022/12/12 06:25:30;;;;;;;4.00;2.50;;;6.50;99.90;;;7.06;47.16;100750.69;4988452;28;96983;-56
2022/12/12 06:27:56;;;;;;;1.87;1.37;;;6.40;99.90;;;6.98;48.20;100752.59;4995303;28;121283;-56
2022/12/12 06:30:22;;;;;;;5.63;3.23;;;6.30;99.90;;;6.82;48.48;100749.41;4984786;28;102786;-52
2022/12/12 06:32:48;;;;;;;4.13;2.13;;;6.20;99.90;;;6.64;48.35;100747.97;4963985;28;97570;-55
2022/12/12 06:35:14;;;;;;;14.13;2.17;;;6.00;99.90;;;6.57;49.22;100747.22;4987104;28;97179;-56
2022/12/12 06:37:40;;;;;;;2.53;1.70;;;6.00;99.90;;;6.61;51.34;100757.66;4991820;28;97530;-52
2022/12/12 06:40:07;;;;;;;3.07;2.03;;;6.00;99.90;;;6.71;49.84;100754.84;4987709;28;108115;-54
2022/12/12 06:42:33;;;;;;;4.50;2.00;;;6.10;99.90;;;6.67;48.97;100760.19;4989636;28;97203;-56
2022/12/12 06:44:58;;;;;;;5.80;1.87;;;6.00;99.90;;;6.63;50.50;100756.72;4983946;28;106006;-55
2022/12/12 06:47:24;;;;;;;4.33;2.10;;;6.00;99.90;;;6.58;49.47;100758.56;4995228;28;97268;-53
2022/12/12 06:49:50;;;;;;;3.80;1.20;;;6.00;99.90;;;6.63;52.65;100761.97;4990692;28;96794;-51
2022/12/12 06:52:16;;;;;;;4.53;2.30;;;6.00;99.90;;;6.63;51.68;100759.34;4988898;28;105800;-55
2022/12/12 06:54:41;;;;;;;3.90;1.70;;;6.00;99.90;;;6.71;48.97;100765.31;4991604;28;111762;-56
2022/12/12 06:57:07;;;;;;;3.30;1.87;;;6.00;99.90;;;6.65;49.20;100765.41;4988729;28;97387;-54
2022/12/12 06:59:33;;;;;;;8.87;2.33;;;6.00;99.90;;;6.53;48.48;100766.53;4988357;28;97669;-52
2022/12/12 07:01:59;;;;;;;4.47;2.10;;;5.90;99.90;;;6.62;50.00;100767.25;4970658;28;96766;-52
2022/12/12 07:04:25;;;;;;;3.00;1.60;;;6.00;99.90;;;6.50;48.74;100765.69;4990331;28;96840;-49
2022/12/12 07:06:51;;;;;;;2.83;2.03;;;5.90;99.90;;;6.59;54.37;100770.78;4994907;28;97749;-56
2022/12/12 07:09:18;;;;;;;6.27;2.10;;;5.90;99.90;;;6.63;48.15;100771.59;4989320;28;99277;-51
2022/12/12 07:11:44;;;;;;;4.13;1.70;;;6.00;99.90;;;6.84;52.29;100782.56;4992936;28;96692;-56
2022/12/12 07:14:10;;;;;;;5.43;1.40;;;6.10;99.90;;;6.94;55.35;100779.75;4987338;28;99078;-52
2022/12/12 07:16:36;;;;;;;1.87;1.30;;;6.10;99.90;;;7.00;51.10;100784.91;4975825;28;97386;-52
2022/12/12 07:19:02;;;;;;;4.43;2.23;;;6.20;99.90;;;7.01;50.08;100786.63;4991866;28;98075;-54
2022/12/12 07:21:27;;;;;;;8.23;2.60;;;6.20;99.90;;;6.96;47.34;100791.09;4993146;28;96971;-49
2022/12/12 07:23:55;;;;;;;2.80;1.23;;;6.20;99.90;;;6.94;48.72;100787.63;4991328;28;105976;-55
2022/12/12 07:26:23;;;;;;;4.37;2.20;;;6.20;99.90;;;6.80;47.39;100795.78;4977868;28;99039;-56
2022/12/12 07:28:50;;;;;;;4.67;1.73;;;6.10;99.90;;;6.62;47.59;100791.69;4995346;28;97528;-53
2022/12/12 07:31:20;;;;;;;5.77;2.33;;;6.00;99.90;;;6.57;47.92;100788.28;4986710;28;97693;-54
2022/12/12 07:33:46;;;;;;;5.67;2.53;;;5.90;99.90;;;6.54;49.23;100793.59;4994265;28;97572;-53
2022/12/12 07:36:14;;;;;;;6.73;2.57;;;5.90;99.90;;;6.44;47.78;100790.25;4975272;28;98839;-56
2022/12/12 07:38:40;;;;;;;3.77;2.40;;;5.90;99.90;;;6.47;48.18;100792.81;4981575;28;98033;-54
2022/12/12 07:41:11;;;;;;;3.97;2.17;;;5.90;99.90;;;6.49;48.81;100791.03;4966481;28;97202;-54
2022/12/12 07:43:39;;;;;;;7.83;2.83;;;5.90;99.90;;;6.43;49.03;100793.75;4994555;28;97625;-54
2022/12/12 07:46:07;;;;;;;1.40;1.27;;;5.80;99.90;;;7.07;56.83;100789.13;4983033;28;97169;-56
2022/12/12 07:48:34;;;;;;;2.50;1.33;;;6.30;99.90;;;7.86;55.22;100798.00;4970041;28;96763;-52
2022/12/12 07:51:00;;;;;;;1.13;0.90;;;7.20;99.90;;;8.47;53.40;100796.59;4986737;28;96862;-52
2022/12/12 07:53:26;;;;;;;6.20;2.27;;;7.90;99.90;;;8.12;45.08;100794.78;4995478;28;97406;-56
2022/12/12 07:55:52;;;;;;;3.50;1.83;;;7.60;99.90;;;7.89;44.04;100803.16;4995013;28;97276;-57
2022/12/12 07:58:18;;;;;;;3.63;1.63;;;7.20;99.90;;;7.71;44.40;100803.59;4971699;28;110151;-56
2022/12/12 08:00:44;;;;;;;4.70;2.77;;;7.00;99.90;;;7.49;45.14;100810.16;4994291;28;96969;-56
2022/12/12 08:03:09;;;;;;;8.33;2.23;;;6.70;99.90;;;7.34;46.00;100814.81;4970754;28;99007;-57
2022/12/12 08:05:39;;;;;;;3.50;1.90;;;6.60;99.90;;;7.09;46.61;100813.59;4995325;28;97524;-56
2022/12/12 08:08:05;;;;;;;4.00;2.03;;;6.40;99.90;;;6.93;47.18;100817.38;4996229;28;97251;-56
2022/12/12 08:10:31;;;;;;;4.17;2.10;;;6.20;99.90;;;6.78;47.30;100816.75;4983548;28;98595;-56
2022/12/12 08:12:57;;;;;;;4.30;1.87;;;6.10;99.90;;;6.61;47.49;100805.69;4971870;28;101490;-61
2022/12/12 08:15:23;;;;;;;5.23;2.17;;;5.90;99.90;;;6.52;47.38;100805.88;4962336;28;116159;-57
2022/12/12 08:17:48;;;;;;;5.23;2.93;;;5.90;99.90;;;6.46;47.96;100812.06;4964332;28;114811;-55
2022/12/12 08:20:15;;;;;;;5.70;2.53;;;5.80;99.90;;;6.50;49.46;100818.09;4959675;28;97382;-56
2022/12/12 08:22:42;;;;;;;6.83;2.23;;;5.80;99.90;;;6.42;48.26;100814.75;4967260;28;97074;-55
2022/12/12 08:25:08;;;;;;;6.93;2.13;;;5.80;99.90;;;6.30;48.01;100815.81;4962719;28;97402;-56
2022/12/12 08:27:34;;;;;;;5.77;2.50;;;5.70;99.90;;;6.30;47.83;100814.94;4966427;28;98531;-56
2022/12/12 08:29:59;;;;;;;7.40;3.13;;;5.70;99.90;;;6.19;47.63;100831.69;4942208;28;97388;-54
2022/12/12 08:32:25;;;;;;;4.10;2.50;;;5.60;99.90;;;6.09;48.23;100837.09;4960340;28;109905;-59
2022/12/12 08:34:56;;;;;;;1.83;1.70;;;5.50;99.90;;;6.00;48.14;100831.97;4968237;28;119305;-56
2022/12/12 08:37:22;;;;;;;2.10;1.77;;;5.40;99.90;;;5.96;48.82;100836.41;4945965;28;98211;-57
2022/12/12 08:39:48;;;;;;;5.33;2.20;;;5.40;99.90;;;5.92;48.98;100825.09;4967192;28;98653;-56
2022/12/12 08:42:13;;;;;;;8.20;3.30;;;5.40;99.90;;;6.10;51.57;100841.44;4965780;28;97005;-56
2022/12/12 08:44:39;;;;;;;8.13;1.83;;;5.40;99.90;;;6.24;53.59;100837.75;4961258;28;118587;-57
2022/12/12 08:47:05;;;;;;;4.93;2.27;;;5.60;99.90;;;6.32;48.70;100847.22;4962017;28;98336;-56
2022/12/12 08:49:31;;;;;;;4.33;2.33;;;5.70;99.90;;;6.34;50.14;100843.69;4964561;28;97018;-56
2022/12/12 08:51:57;;;;;;;6.60;2.33;;;5.70;99.90;;;6.41;51.53;100839.22;4965478;28;98710;-57
2022/12/12 08:54:24;;;;;;;6.30;2.63;;;5.70;99.90;;;6.65;53.38;100837.94;4960654;28;100502;-55
2022/12/12 08:56:50;;;;;;;3.03;2.10;;;5.80;99.90;;;6.71;48.92;100843.97;4962403;28;98593;-57
2022/12/12 08:59:15;;;;;;;3.37;2.00;;;5.90;99.90;;;6.61;47.89;100842.38;4962851;28;101493;-56
2022/12/12 09:01:41;;;;;;;4.30;2.27;;;5.90;99.90;;;6.75;52.00;100840.41;4964200;28;97217;-56
2022/12/12 09:04:07;;;;;;;6.07;2.83;;;5.90;99.90;;;6.73;47.86;100851.81;4960417;28;99407;-56
2022/12/12 09:06:33;;;;;;;5.10;2.13;;;6.00;99.90;;;6.67;48.86;100846.69;4964784;28;103658;-55
2022/12/12 09:08:58;;;;;;;4.60;2.97;;;5.90;99.90;;;6.63;48.11;100855.47;4965454;28;99659;-56
2022/12/12 09:11:25;;;;;;;4.43;1.50;;;5.90;99.90;;;6.89;53.42;100853.28;4964006;28;106007;-56
2022/12/12 09:13:51;;;;;;;5.17;2.53;;;6.00;99.90;;;6.85;50.25;100851.59;4944727;28;97576;-57
2022/12/12 09:16:18;;;;;;;10.07;2.27;;;6.10;99.90;;;6.94;51.43;100858.44;4961143;28;96851;-56
2022/12/12 09:18:44;;;;;;;8.73;2.80;;;6.10;99.90;;;7.14;49.46;100853.72;4950280;28;102477;-57
2022/12/12 09:21:09;;;;;;;4.37;2.13;;;6.30;99.90;;;7.26;50.13;100848.25;4963258;28;96947;-56
2022/12/12 09:23:35;;;;;;;4.43;2.27;;;6.40;99.90;;;7.47;52.71;100857.44;4959580;28;113044;-56
2022/12/12 09:26:07;;;;;;;4.03;2.13;;;6.50;99.90;;;7.63;53.13;100860.63;4961907;28;97721;-55
2022/12/12 09:28:33;;;;;;;6.10;2.43;;;6.70;99.90;;;7.76;52.84;100857.72;4963095;28;98671;-56
2022/12/12 09:30:59;;;;;;;4.50;2.10;;;6.70;99.90;;;7.99;50.36;100859.88;4963881;28;106392;-57
2022/12/12 09:33:24;;;;;;;3.47;1.90;;;7.00;99.90;;;8.19;52.52;100855.94;4963692;28;107832;-56
2022/12/12 09:36:03;;;;;;;4.37;2.20;;;7.10;99.90;;;8.19;47.36;100858.56;4962508;28;112402;-57
2022/12/12 09:38:29;;;;;;;2.70;1.47;;;7.20;99.90;;;8.46;52.21;100863.22;4962200;28;97466;-56
2022/12/12 09:40:57;;;;;;;1.57;1.17;;;7.40;99.90;;;8.43;50.59;100863.28;4936934;28;100663;-58
2022/12/12 09:43:28;;;;;;;10.27;2.63;;;7.40;99.90;;;8.80;50.30;100857.97;4961787;28;100929;-54
2022/12/12 09:45:54;;;;;;;4.70;2.77;;;7.70;99.90;;;8.56;46.58;100864.72;4948375;28;97724;-56
2022/12/12 09:48:43;;;;;;;3.17;1.40;;;7.60;99.90;;;8.57;50.99;100861.19;4951168;28;105802;-57
2022/12/12 09:51:10;;;;;;;6.80;2.73;;;7.50;99.90;;;8.65;47.94;100853.97;4964834;28;96726;-56
2022/12/12 09:53:37;;;;;;;3.27;2.67;;;7.60;99.90;;;8.67;46.94;100856.56;4957263;28;99441;-56
2022/12/12 09:56:49;;;;;;;5.53;2.50;;;7.60;99.90;;;8.77;49.04;100863.31;4958135;28;98738;-56
2022/12/12 09:59:40;;;;;;;4.90;2.60;;;7.70;99.90;;;8.74;48.02;100858.16;4938229;28;99697;-54
2022/12/12 10:02:28;;;;;;;4.13;2.23;;;7.70;99.90;;;8.55;49.95;100863.00;4966422;28;96966;-57
2022/12/12 10:05:08;;;;;;;4.67;2.27;;;7.50;99.90;;;8.51;46.72;100865.72;4987566;28;97216;-56
2022/12/12 10:08:07;;;;;;;4.80;2.60;;;7.60;99.90;;;8.82;51.73;100868.47;4985915;28;101161;-58
2022/12/12 10:10:44;;;;;;;5.07;3.07;;;7.70;99.90;;;8.80;47.89;100862.38;4986076;28;97157;-56
2022/12/12 10:13:17;;;;;;;2.10;1.20;;;7.80;99.90;;;9.16;51.10;100866.72;4971656;28;97722;-56
2022/12/12 10:15:48;;;;;;;3.60;1.47;;;8.10;99.90;;;9.45;50.00;100868.56;4969476;28;97365;-53
2022/12/12 10:18:22;;;;;;;5.80;1.93;;;8.50;99.90;;;9.55;49.60;100869.19;4974803;28;97195;-54
2022/12/12 10:20:52;;;;;;;3.77;1.80;;;8.60;99.90;;;9.56;44.73;100876.16;4976988;28;98067;-54
2022/12/12 10:23:46;;;;;;;6.27;2.97;;;8.60;99.90;;;9.41;49.49;100866.06;4993374;28;99452;-55
2022/12/12 10:26:27;;;;;;;2.57;1.13;;;8.30;99.90;;;9.62;48.96;100864.59;4988549;28;97912;-56
2022/12/12 10:29:11;;;;;;;4.30;2.17;;;8.60;99.90;;;9.48;43.51;100857.94;4989642;28;97404;-56
2022/12/12 10:31:42;;;;;;;4.73;2.37;;;8.70;99.90;;;9.59;48.90;100862.91;4964090;28;97018;-56
2022/12/12 10:34:47;;;;;;;4.17;2.67;;;8.60;99.90;;;9.66;46.69;100853.91;4991410;28;96834;-55
2022/12/12 10:38:02;;;;;;;5.13;2.70;;;8.70;99.90;;;9.18;42.91;100853.50;4987026;28;96874;-56
2022/12/12 10:41:14;;;;;;;7.93;2.13;;;8.50;99.90;;;9.43;46.83;100853.72;4986613;28;101225;-55
2022/12/12 10:44:23;;;;;;;2.60;1.57;;;8.50;99.90;;;9.62;49.80;100849.66;4948234;28;97081;-56
2022/12/12 10:47:08;;;;;;;5.40;3.00;;;8.60;99.90;;;9.50;44.32;100847.34;4981647;28;97354;-55
2022/12/12 10:49:34;;;;;;;2.80;1.70;;;8.80;99.40;;;9.43;48.32;100843.19;4988445;28;100435;-54
2022/12/12 10:52:04;;;;;;;6.77;2.03;;;8.60;99.90;;;9.55;44.46;100848.09;4983302;28;96973;-56
2022/12/12 10:54:44;;;;;;;6.60;3.43;;;8.70;99.90;;;9.23;46.60;100838.44;4998024;28;97328;-56
2022/12/12 10:57:18;;;;;;;3.70;2.07;;;8.40;99.90;;;9.17;49.18;100842.13;4982459;28;97162;-57
2022/12/12 10:59:52;;;;;;;8.30;1.53;;;8.30;99.90;;;9.07;48.18;100840.63;4996247;28;97907;-57
2022/12/12 11:02:40;;;;;;;4.80;1.87;;;8.20;99.90;;;8.96;48.63;100837.41;4998530;28;99510;-54
2022/12/12 11:05:26;;;;;;;6.70;2.97;;;8.10;99.90;;;9.34;48.89;100843.41;4993197;28;96721;-56